createdAt,value
2022-07-31T09:00:11.418Z,51.715
2022-07-31T09:01:20.084Z,51.932999
2022-07-31T09:02:29.738Z,52.102001
2022-07-31T09:03:38.318Z,52.368999
2022-07-31T09:04:51.943Z,52.592999
2022-07-31T09:05:57.555Z,52.723999
2022-07-31T09:07:06.398Z,52.955002
2022-07-31T09:08:15.824Z,52.937
2022-07-31T09:09:23.408Z,53.095001
2022-07-31T09:10:32.021Z,52.827
2022-07-31T09:11:41.617Z,52.924999
2022-07-31T09:12:51.186Z,52.717999
2022-07-31T09:14:01.619Z,52.521
2022-07-31T09:15:10.401Z,52.196999
2022-07-31T09:16:22.737Z,52.089001
2022-07-31T09:17:29.524Z,52.062
2022-07-31T09:18:38.119Z,52.122002
2022-07-31T09:19:51.515Z,52.168999
2022-07-31T09:20:58.388Z,52.327
2022-07-31T09:22:10.349Z,52.165001
2022-07-31T09:23:16.523Z,52.006001
2022-07-31T09:24:26.186Z,51.994999
2022-07-31T09:25:34.802Z,51.84
2022-07-31T09:26:44.394Z,51.868999
2022-07-31T09:27:52.049Z,52.070999
2022-07-31T09:29:00.619Z,52.035999
2022-07-31T09:30:10.258Z,52.119999
2022-07-31T09:31:18.898Z,52.105999
2022-07-31T09:32:26.522Z,52.148998
2022-07-31T09:33:35.100Z,52.083
2022-07-31T09:34:43.660Z,52.131001
2022-07-31T09:35:53.296Z,52.048
2022-07-31T09:37:01.061Z,51.983002
2022-07-31T09:38:09.557Z,52.005001
2022-07-31T09:39:20.527Z,51.999001
2022-07-31T09:40:29.786Z,52.056999
2022-07-31T09:41:56.047Z,52.023998
2022-07-31T09:42:55.154Z,52.064999
2022-07-31T09:43:59.567Z,51.986
2022-07-31T09:45:10.160Z,51.827999
2022-07-31T09:46:18.959Z,52.029999
2022-07-31T09:47:26.604Z,52.046001
2022-07-31T09:48:36.216Z,52.016998
2022-07-31T09:49:45.866Z,51.962002
2022-07-31T09:50:55.486Z,51.950001
2022-07-31T09:52:04.037Z,52.028
2022-07-31T09:53:12.668Z,52.051998
2022-07-31T09:54:22.311Z,51.951
2022-07-31T09:55:29.907Z,51.960999
2022-07-31T09:56:37.494Z,51.915001
2022-07-31T09:57:48.692Z,51.883999
2022-07-31T09:58:56.727Z,51.880001
2022-07-31T10:00:05.292Z,51.868
2022-07-31T10:01:14.175Z,51.931999
2022-07-31T10:02:23.004Z,51.993
2022-07-31T10:03:33.601Z,51.914001
2022-07-31T10:04:41.276Z,51.980999
2022-07-31T10:05:49.809Z,52.058998
2022-07-31T10:06:59.639Z,52.058998
2022-07-31T10:08:08.199Z,51.987
2022-07-31T10:09:16.800Z,52.049999
2022-07-31T10:10:26.401Z,51.980999
2022-07-31T10:11:34.942Z,51.91
2022-07-31T10:12:44.670Z,51.916
2022-07-31T10:13:53.293Z,51.931
2022-07-31T10:15:00.908Z,51.868
2022-07-31T10:16:10.532Z,51.917999
2022-07-31T10:17:19.143Z,51.926998
2022-07-31T10:18:35.965Z,52.014999
2022-07-31T10:19:38.348Z,52.063
2022-07-31T10:20:47.015Z,51.967999
2022-07-31T10:21:57.000Z,51.916
2022-07-31T10:23:04.725Z,51.909
2022-07-31T10:24:13.340Z,51.861
2022-07-31T10:25:22.932Z,51.82
2022-07-31T10:26:57.623Z,51.807999
2022-07-31T10:27:41.477Z,51.683998
2022-07-31T10:28:51.286Z,51.715
2022-07-31T10:29:59.914Z,51.665001
2022-07-31T10:31:09.655Z,51.596001
2022-07-31T10:32:17.179Z,51.553001
2022-07-31T10:33:43.354Z,51.519001
2022-07-31T10:34:37.304Z,51.530998
2022-07-31T10:35:55.434Z,51.548
2022-07-31T10:36:55.571Z,51.598999
2022-07-31T10:38:04.203Z,51.598999
2022-07-31T10:39:12.757Z,51.601002
2022-07-31T10:40:22.427Z,51.595001
2022-07-31T10:41:30.064Z,51.483002
2022-07-31T10:42:37.696Z,51.484001
2022-07-31T10:43:47.311Z,51.490002
2022-07-31T10:44:56.029Z,51.453999
2022-07-31T10:46:05.576Z,51.453999
2022-07-31T10:47:14.217Z,51.417
2022-07-31T10:48:22.820Z,51.418999
2022-07-31T10:49:32.424Z,51.395
2022-07-31T10:50:40.964Z,51.334
2022-07-31T10:51:48.566Z,51.330002
2022-07-31T10:53:00.660Z,51.381001
2022-07-31T10:54:06.672Z,51.359001
2022-07-31T10:55:16.216Z,51.414001
2022-07-31T10:56:25.816Z,51.437
2022-07-31T10:57:33.403Z,51.375999
2022-07-31T10:58:41.953Z,51.356998
2022-07-31T10:59:51.542Z,51.347
2022-07-31T11:01:00.110Z,51.359001
2022-07-31T11:02:08.779Z,51.353001
2022-07-31T11:03:18.287Z,51.416
2022-07-31T11:04:26.907Z,51.465
2022-07-31T11:06:01.180Z,51.391998
2022-07-31T11:06:47.126Z,51.366001
2022-07-31T11:07:55.678Z,51.347
2022-07-31T11:09:05.246Z,51.323002
2022-07-31T11:10:13.783Z,51.317001
2022-07-31T11:11:26.142Z,51.34
2022-07-31T11:12:32.953Z,51.308998
2022-07-31T11:13:42.502Z,51.314999
2022-07-31T11:14:52.285Z,51.346001
2022-07-31T11:16:02.020Z,51.305
2022-07-31T11:17:10.605Z,51.299
2022-07-31T11:18:23.976Z,51.244999
2022-07-31T11:19:31.737Z,51.275002
2022-07-31T11:20:42.257Z,51.327999
2022-07-31T11:21:50.848Z,51.310001
2022-07-31T11:23:00.423Z,51.241001
2022-07-31T11:24:11.593Z,51.166
2022-07-31T11:25:18.502Z,51.198002
2022-07-31T11:26:32.271Z,51.223
2022-07-31T11:27:38.644Z,51.273998
2022-07-31T11:28:48.246Z,51.241001
2022-07-31T11:30:04.055Z,51.153999
2022-07-31T11:31:08.387Z,51.098999
2022-07-31T11:32:16.963Z,51.081001
2022-07-31T11:33:27.541Z,51.081001
2022-07-31T11:34:37.111Z,51.083
2022-07-31T11:35:44.714Z,51.083
2022-07-31T11:36:54.313Z,51.116001
2022-07-31T11:38:02.896Z,51.097
2022-07-31T11:39:11.447Z,51.084999
2022-07-31T11:40:22.068Z,51.039001
2022-07-31T11:41:30.889Z,51.069
2022-07-31T11:42:40.124Z,51.105999
2022-07-31T11:43:49.683Z,51.091999
2022-07-31T11:44:57.229Z,51.073002
2022-07-31T11:46:08.217Z,51.044998
2022-07-31T11:47:27.721Z,50.977001
2022-07-31T11:48:27.860Z,50.870998
2022-07-31T11:49:39.069Z,50.896999
2022-07-31T11:50:46.043Z,50.958
2022-07-31T11:51:55.846Z,50.950001
2022-07-31T11:53:03.642Z,50.819
2022-07-31T11:54:12.659Z,50.634998
2022-07-31T11:55:22.285Z,50.511002
2022-07-31T11:56:31.935Z,50.535999
2022-07-31T11:57:51.027Z,50.598999
2022-07-31T11:58:52.149Z,50.605
2022-07-31T12:00:01.787Z,50.605
2022-07-31T12:01:12.389Z,50.629002
2022-07-31T12:02:20.083Z,50.487999
2022-07-31T12:03:29.706Z,50.401001
2022-07-31T12:04:39.342Z,50.32
2022-07-31T12:05:47.890Z,50.296001
2022-07-31T12:06:56.755Z,50.318001
2022-07-31T12:08:06.310Z,50.292
2022-07-31T12:10:00.025Z,50.312
2022-07-31T12:10:26.421Z,50.348999
2022-07-31T12:11:34.007Z,50.355
2022-07-31T12:12:42.577Z,50.403
2022-07-31T12:13:52.174Z,50.330002
2022-07-31T12:15:00.740Z,50.339001
2022-07-31T12:16:10.287Z,50.347
2022-07-31T12:17:18.883Z,50.353001
2022-07-31T12:18:28.521Z,50.339001
2022-07-31T12:19:38.827Z,50.450001
2022-07-31T12:20:45.682Z,50.723
2022-07-31T12:21:53.288Z,50.778
2022-07-31T12:23:02.908Z,50.827999
2022-07-31T12:24:11.506Z,51.292
2022-07-31T12:25:21.116Z,51.069
2022-07-31T12:26:29.721Z,51.039001
2022-07-31T12:27:38.252Z,51.069
2022-07-31T12:28:47.841Z,51.116001
2022-07-31T12:29:56.388Z,51.133999
2022-07-31T12:31:03.982Z,51.202999
2022-07-31T12:32:13.572Z,51.196999
2022-07-31T12:33:22.122Z,51.202999
2022-07-31T12:34:31.668Z,51.196999
2022-07-31T12:35:41.728Z,51.181
2022-07-31T12:36:49.826Z,51.199001
2022-07-31T12:37:59.405Z,51.256001
2022-07-31T12:39:07.985Z,51.286999
2022-07-31T12:40:15.783Z,51.292999
2022-07-31T12:41:25.485Z,51.389999
2022-07-31T12:42:37.795Z,51.396
2022-07-31T12:43:50.335Z,51.389999
2022-07-31T12:44:55.058Z,51.396
2022-07-31T12:46:03.633Z,51.408001
2022-07-31T12:47:12.271Z,51.402
2022-07-31T12:48:19.819Z,51.389999
2022-07-31T12:49:27.422Z,51.320999
2022-07-31T12:50:37.021Z,51.414001
2022-07-31T12:51:47.085Z,51.402
2022-07-31T12:52:55.120Z,51.460999
2022-07-31T12:54:04.745Z,51.443001
2022-07-31T12:55:12.292Z,51.410999
2022-07-31T12:56:19.885Z,51.424999
2022-07-31T12:57:29.453Z,51.455002
2022-07-31T12:58:37.983Z,51.495998
2022-07-31T12:59:46.536Z,51.34
2022-07-31T13:00:56.094Z,51.261002
2022-07-31T13:02:04.828Z,51.152
2022-07-31T13:03:14.304Z,51.034
2022-07-31T13:04:22.897Z,51.092999
2022-07-31T13:05:30.494Z,51.112999
2022-07-31T13:06:40.111Z,51.026001
2022-07-31T13:07:48.691Z,51.032001
2022-07-31T13:08:57.233Z,51.028
2022-07-31T13:10:14.750Z,50.929001
2022-07-31T13:11:15.387Z,50.910999
2022-07-31T13:12:24.981Z,50.886002
2022-07-31T13:13:32.536Z,50.875
2022-07-31T13:14:41.102Z,50.757999
2022-07-31T13:15:50.718Z,50.727001
2022-07-31T13:16:59.520Z,50.776001
2022-07-31T13:18:08.096Z,50.917
2022-07-31T13:19:16.742Z,51.036999
2022-07-31T13:20:26.221Z,51.098
2022-07-31T13:21:40.061Z,51.122002
2022-07-31T13:22:46.369Z,51.167
2022-07-31T13:23:56.348Z,51.122002
2022-07-31T13:25:05.508Z,51.154999
2022-07-31T13:26:15.087Z,51.148998
2022-07-31T13:27:23.731Z,51.202999
2022-07-31T13:28:33.224Z,51.234001
2022-07-31T13:29:42.815Z,51.196999
2022-07-31T13:30:55.153Z,51.234001
2022-07-31T13:32:01.931Z,51.226002
2022-07-31T13:33:18.989Z,51.187
2022-07-31T13:34:35.049Z,51.237999
2022-07-31T13:35:50.149Z,51.319
2022-07-31T13:36:58.708Z,51.325001
2022-07-31T13:38:07.276Z,51.299
2022-07-31T13:39:14.862Z,51.275002
2022-07-31T13:40:23.402Z,51.226002
2022-07-31T13:41:31.947Z,51.297001
2022-07-31T13:42:42.530Z,51.303001
2022-07-31T13:43:59.960Z,51.341
2022-07-31T13:45:02.854Z,51.320999
2022-07-31T13:46:11.218Z,51.308998
2022-07-31T13:47:19.796Z,51.347
2022-07-31T13:48:28.368Z,51.333
2022-07-31T13:49:36.961Z,51.314999
2022-07-31T13:50:45.501Z,51.291
2022-07-31T13:51:55.103Z,51.341
2022-07-31T13:53:03.653Z,51.366001
2022-07-31T13:54:11.246Z,51.403
2022-07-31T13:55:20.810Z,51.372002
2022-07-31T13:56:36.872Z,51.348
2022-07-31T13:57:40.922Z,51.324001
2022-07-31T13:58:49.503Z,51.354
2022-07-31T13:59:58.093Z,51.348
2022-07-31T14:01:07.762Z,51.409
2022-07-31T14:02:15.759Z,51.366001
2022-07-31T14:03:23.812Z,51.32
2022-07-31T14:04:38.150Z,51.264999
2022-07-31T14:05:43.868Z,51.244999
2022-07-31T14:06:53.468Z,51.264999
2022-07-31T14:08:30.387Z,51.264999
2022-07-31T14:09:12.558Z,51.250999
2022-07-31T14:10:22.111Z,51.244999
2022-07-31T14:11:29.756Z,51.290001
2022-07-31T14:12:38.364Z,51.313999
2022-07-31T14:13:47.929Z,51.285999
2022-07-31T14:14:56.488Z,51.272999
2022-07-31T14:16:05.025Z,51.285999
2022-07-31T14:17:13.607Z,51.279999
2022-07-31T14:18:22.170Z,51.279999
2022-07-31T14:19:40.557Z,51.301998
2022-07-31T14:20:42.287Z,51.290001
2022-07-31T14:21:56.590Z,51.271999
2022-07-31T14:23:02.486Z,51.247002
2022-07-31T14:24:12.090Z,51.254002
2022-07-31T14:25:20.764Z,51.290001
2022-07-31T14:26:29.356Z,51.268002
2022-07-31T14:27:37.958Z,51.262001
2022-07-31T14:28:47.602Z,51.287998
2022-07-31T14:29:56.217Z,51.279999
2022-07-31T14:31:03.765Z,51.262001
2022-07-31T14:32:13.377Z,51.237999
2022-07-31T14:33:21.961Z,51.265999
2022-07-31T14:34:35.596Z,51.303001
2022-07-31T14:35:41.155Z,51.291
2022-07-31T14:36:50.744Z,51.271999
2022-07-31T14:38:03.289Z,51.254002
2022-07-31T14:39:09.909Z,51.242001
2022-07-31T14:40:18.391Z,51.254002
2022-07-31T14:41:27.950Z,51.278999
2022-07-31T14:42:36.629Z,51.285
2022-07-31T14:43:45.237Z,51.266998
2022-07-31T14:44:53.839Z,51.254002
2022-07-31T14:46:02.415Z,51.236
2022-07-31T14:47:10.998Z,51.223999
2022-07-31T14:48:18.596Z,51.265999
2022-07-31T14:50:08.282Z,51.271999
2022-07-31T14:50:36.723Z,51.265999
2022-07-31T14:51:45.389Z,51.236
2022-07-31T14:52:53.976Z,51.226002
2022-07-31T14:54:03.525Z,51.245998
2022-07-31T14:55:11.119Z,51.245998
2022-07-31T14:56:39.531Z,51.277
2022-07-31T14:57:31.204Z,51.231998
2022-07-31T14:58:57.085Z,51.214001
2022-07-31T14:59:49.331Z,51.258999
2022-07-31T15:00:58.939Z,51.237999
2022-07-31T15:02:07.488Z,51.212002
2022-07-31T15:03:17.047Z,51.188
2022-07-31T15:04:23.622Z,51.154999
2022-07-31T15:06:37.314Z,51.153999
2022-07-31T15:06:55.609Z,50.943001
2022-07-31T15:07:54.245Z,50.766998
2022-07-31T15:09:02.808Z,50.716
2022-07-31T15:10:12.399Z,50.68
